ADDS METAR Data INFO
IDs: Format: Raw Decoded Include TAF

Data at: 2329 UTC 19 Oct 2017

KHSG 192310Z AUTO 20013G20KT 10SM CLR 18/M04 A2978 RMK AO2 T01791040
KHSG 192250Z AUTO 20018G23KT 10SM CLR 21/M04 A2978 RMK AO2 T02051040
KHSG 192230Z AUTO 19015G24KT 10SM CLR 22/M05 A2979 RMK AO2 T02161046
KHSG 192210Z AUTO 20018G23KT 10SM CLR 22/M04 A2979 RMK AO2 T02231042
KHSG 192150Z AUTO 19018G24KT 10SM CLR 22/M04 A2980 RMK AO2 T02161039
KHSG 192130Z AUTO 20019G24KT 10SM CLR 20/M04 A2980 RMK AO2 T02001043
KHSG 192110Z AUTO 20015G26KT 10SM CLR 23/M06 A2980 RMK AO2 T02321056
KHSG 192050Z AUTO 20016G24KT 10SM CLR 23/M06 A2981 RMK AO2 T02301063
KHSG 192030Z AUTO 20014G24KT 10SM CLR 21/M07 A2982 RMK AO2 T02101070
KHSG 192010Z AUTO 21008G24KT 10SM CLR 23/M09 A2982 RMK AO2 T02261093
KHSG 191950Z AUTO 21018G24KT 10SM CLR 24/M09 A2982 RMK AO2 T02421088
KHSG 191930Z AUTO 20019G25KT 10SM CLR 24/M08 A2984 RMK AO2 T02421082
KHSG 191910Z AUTO 20009G23KT 190V250 10SM CLR 23/M05 A2985 RMK AO2 T02311050
KHSG 191850Z AUTO 29007KT 10SM CLR 24/M06 A2987 RMK AO2 T02361065
KHSG 191830Z AUTO 28005KT 10SM CLR 22/M04 A2988 RMK AO2 T02181042
KHSG 191810Z AUTO 14010G17KT 10SM CLR 20/M04 A2989 RMK AO2 T01961036
KHSG 191750Z AUTO 36007KT 10SM CLR 20/M02 A2990 RMK AO2 T01951016 10195 21003
KHSG 191730Z AUTO 04006KT 10SM CLR 18/M02 A2991 RMK AO2 T01841018
KHSG 191710Z AUTO 04007KT 10SM CLR 18/M02 A2991 RMK AO2 T01751021
KHSG 191650Z AUTO 06007KT 10SM CLR 18/M03 A2991 RMK AO2 T01771030
KHSG 191630Z AUTO 07005KT 10SM CLR 17/M03 A2992 RMK AO2 T01711030
KHSG 191610Z AUTO 00000KT 10SM CLR 17/M04 A2993 RMK AO2 T01681037
KHSG 191550Z AUTO 00000KT 10SM CLR 15/M04 A2993 RMK AO2 T01491040
KHSG 191530Z AUTO 27005KT 10SM CLR 14/M03 A2994 RMK AO2 T01381028
KHSG 191510Z AUTO 21003KT 10SM CLR 11/M01 A2995 RMK AO2 T01141013
KHSG 191430Z AUTO 00000KT 10SM CLR 06/M03 A2995 RMK AO2 T00621033
KHSG 191410Z AUTO 17004KT 10SM CLR 04/M04 A2995 RMK AO2 T00411043
KHSG 191350Z AUTO 33003KT 10SM CLR 03/M05 A2995 RMK AO2 T00281052
KHSG 191330Z AUTO 22003KT 10SM CLR 03/M05 A2995 RMK AO2 T00301046
KHSG 191310Z AUTO 00000KT 10SM CLR 01/M04 A2995 RMK AO2 T00051045
KHSG 191250Z AUTO 00000KT 10SM CLR 03/M05 A2995 RMK AO2 T00271049
KHSG 191230Z AUTO 26004KT 10SM CLR 03/M05 A2995 RMK AO2 T00251046
KHSG 191210Z AUTO 00000KT 10SM CLR 02/M04 A2995 RMK AO2 T00171041
KHSG 191150Z AUTO 00000KT 10SM CLR 01/M04 A2995 RMK AO2 T00091041 10111 21007
KHSG 191130Z AUTO 00000KT 10SM CLR 00/M04 A2995 RMK AO2 T10021045
KHSG 191110Z AUTO 28005KT 10SM CLR 04/M04 A2995 RMK AO2 T00441045
KHSG 191050Z AUTO 00000KT 10SM CLR 05/M05 A2995 RMK AO2 T00521047
KHSG 191030Z AUTO 27008KT 10SM CLR 03/M04 A2995 RMK AO2 T00331043
KHSG 191010Z AUTO 27009G14KT 10SM CLR 04/M05 A2995 RMK AO2 T00361049
KHSG 190950Z AUTO 26007G10KT 10SM CLR 09/M05 A2996 RMK AO2 T00941055
KHSG 190930Z AUTO 28011KT 10SM CLR 05/M04 A2996 RMK AO2 T00541043
KHSG 190910Z AUTO 25008KT 10SM CLR 03/M04 A2997 RMK AO2 T00291042
KHSG 190850Z AUTO 21004KT 10SM CLR 03/M04 A2997 RMK AO2 T00341045
KHSG 190830Z AUTO 26006KT 10SM CLR 08/M05 A2997 RMK AO2 T00801050
KHSG 190810Z AUTO 29007KT 10SM CLR 04/M05 A2997 RMK AO2 T00401050
KHSG 190750Z AUTO 28005KT 10SM CLR 03/M05 A2998 RMK AO2 T00321048
KHSG 190730Z AUTO 00000KT 10SM CLR 06/M06 A2998 RMK AO2 T00551056
KHSG 190710Z AUTO 00000KT 10SM CLR 09/M06 A2997 RMK AO2 T00921064
KHSG 190650Z AUTO 33006KT 10SM CLR 11/M06 A2997 RMK AO2 T01081065 402460030
KHSG 190630Z AUTO 32006KT 10SM CLR 08/M06 A2997 RMK AO2 T00791060
KHSG 190610Z AUTO 35003KT 10SM CLR 06/M05 A2998 RMK AO2 T00621054
KHSG 190550Z AUTO 00000KT 10SM CLR 06/M05 A2998 RMK AO2 T00631053 10191 20053
KHSG 190530Z AUTO 17004KT 10SM CLR 11/M07 A2999 RMK AO2 T01111066
KHSG 190510Z AUTO 31004KT 10SM CLR 06/M05 A2999 RMK AO2 T00611048
KHSG 190450Z AUTO 27007G14KT 10SM CLR 07/M05 A2999 RMK AO2 T00681052
KHSG 190430Z AUTO 26008KT 10SM CLR 09/M06 A2999 RMK AO2 T00881058
KHSG 190410Z AUTO 25008G17KT 10SM CLR 12/M06 A2999 RMK AO2 T01181062
KHSG 190350Z AUTO 27010G18KT 10SM CLR 12/M06 A2999 RMK AO2 T01171063
KHSG 190330Z AUTO 26011KT 10SM CLR 09/M06 A3000 RMK AO2 T00921059
KHSG 190310Z AUTO 25009KT 10SM CLR 13/M07 A3000 RMK AO2 T01341074
KHSG 190250Z AUTO 26009G18KT 10SM CLR 15/M07 A2999 RMK AO2 T01471073
KHSG 190230Z AUTO 28011G18KT 10SM CLR 15/M08 A2999 RMK AO2 T01501077
KHSG 190210Z AUTO 28009KT 10SM CLR 15/M08 A3000 RMK AO2 T01461080
KHSG 190150Z AUTO 27008G16KT 10SM CLR 14/M08 A3000 RMK AO2 T01411081
KHSG 190130Z AUTO 27009G15KT 10SM CLR 14/M08 A3000 RMK AO2 T01391081
KHSG 190110Z AUTO 26014G22KT 10SM CLR 15/M08 A2999 RMK AO2 T01471084
KHSG 190050Z AUTO 28008KT 10SM CLR 11/M08 A2999 RMK AO2 T01061077
KHSG 190030Z AUTO 00000KT 10SM CLR 15/M10 A2999 RMK AO2 T01471098
KHSG 190010Z AUTO 22005KT 10SM CLR 18/M10 A2999 RMK AO2 T01751105
KHSG 182350Z AUTO 23012G18KT 10SM CLR 20/M11 A2997 RMK AO2 T01961115 10246 20181
KHSG 182330Z AUTO 21008KT 10SM CLR 18/M08 A2998 RMK AO2 T01831083
KHSG 182310Z AUTO 21010G18KT 10SM CLR 20/M11 A2998 RMK AO2 T02031106
KHSG 182250Z AUTO 22010G16KT 10SM CLR 22/M11 A2999 RMK AO2 T02161111
KHSG 182230Z AUTO 22014G19KT 10SM CLR 21/M12 A2999 RMK AO2 T02131117
KHSG 182210Z AUTO 24010G18KT 10SM CLR 21/M12 A3000 RMK AO2 T02121118
KHSG 182150Z AUTO 23017G25KT 10SM CLR 22/M12 A3000 RMK AO2 T02191125
KHSG 182130Z AUTO 24016G22KT 10SM CLR 22/M11 A3000 RMK AO2 T02201106
KHSG 182110Z AUTO 24015G19KT 10SM CLR 24/M10 A3000 RMK AO2 T02411100
KHSG 182050Z AUTO 24015G21KT 10SM CLR 22/M11 A3000 RMK AO2 T02241113
KHSG 182030Z AUTO 24015G21KT 10SM CLR 23/M12 A3001 RMK AO2 T02331118
KHSG 182010Z AUTO 23009G15KT 200V260 10SM CLR 25/M12 A3001 RMK AO2 T02451123
KHSG 181950Z AUTO 23003KT 10SM CLR 24/M13 A3002 RMK AO2 T02351126
KHSG 181930Z AUTO 16012G16KT 10SM CLR 23/M11 A3002 RMK AO2 T02281107
KHSG 181910Z AUTO 20005KT 10SM CLR 22/M09 A3004 RMK AO2 T02241095
KHSG 181850Z AUTO 14004KT 10SM CLR 21/M10 A3005 RMK AO2 T02141101
KHSG 181830Z AUTO 13003KT 10SM CLR 20/M09 A3006 RMK AO2 T02041095
KHSG 181810Z AUTO 00000KT 10SM CLR 20/M09 A3007 RMK AO2 T02041094
KHSG 181750Z AUTO 25003KT 10SM CLR 20/M09 A3008 RMK AO2 T01961093 10196 20030
KHSG 181730Z AUTO 18004KT 10SM CLR 19/M08 A3008 RMK AO2 T01921085
KHSG 181710Z AUTO 16004KT 10SM CLR 19/M08 A3008 RMK AO2 T01881084
KHSG 181650Z AUTO 00000KT 10SM CLR 17/M07 A3009 RMK AO2 T01741074
KHSG 181630Z AUTO 00000KT 10SM CLR 16/M06 A3010 RMK AO2 T01601065
KHSG 181610Z AUTO 00000KT 10SM CLR 16/M06 A3009 RMK AO2 T01611063
KHSG 181550Z AUTO 00000KT 10SM CLR 15/M06 A3009 RMK AO2 T01491058
KHSG 181530Z AUTO 27004KT 10SM CLR 13/M05 A3009 RMK AO2 T01291046
KHSG 181510Z AUTO 00000KT 10SM CLR 11/M05 A3009 RMK AO2 T01121055
KHSG 181450Z AUTO 19006KT 10SM CLR 10/M06 A3008 RMK AO2 T00951059
KHSG 181430Z AUTO 02006KT 10SM CLR 07/M05 A3008 RMK AO2 T00661053
KHSG 181410Z AUTO 30003KT 10SM CLR 05/M07 A3006 RMK AO2 T00511068
KHSG 181350Z AUTO 28008KT 10SM CLR 05/M08 A3005 RMK AO2 T00541082
KHSG 181330Z AUTO 29004KT 10SM CLR 03/M08 A3005 RMK AO2 T00301081
KHSG 181310Z AUTO 22003KT 10SM CLR 05/M08 A3004 RMK AO2 T00461082
KHSG 181250Z AUTO 24006KT 10SM CLR 04/M08 A3003 RMK AO2 T00371078
KHSG 181230Z AUTO 23003KT 10SM CLR 04/M08 A3003 RMK AO2 T00351081
KHSG 181210Z AUTO 00000KT 10SM CLR 06/M09 A3003 RMK AO2 T00621087
KHSG 181150Z AUTO 28012G17KT 10SM CLR 07/M08 A3002 RMK AO2 T00711085 10122 20041
KHSG 181130Z AUTO 27012KT 10SM CLR 08/M08 A3001 RMK AO2 T00771084